createdAt,value
2023-03-16T11:07:50.004Z,3.08
2023-03-16T11:10:46.037Z,2.35
2023-03-16T11:13:21.468Z,2.97
2023-03-16T11:15:57.463Z,3.45
2023-03-16T11:18:36.811Z,2.72
2023-03-16T11:21:13.111Z,3.30
2023-03-16T11:23:48.427Z,2.90
2023-03-16T11:26:32.554Z,2.42
2023-03-16T11:29:09.516Z,2.60
2023-03-16T11:31:42.714Z,2.22
2023-03-16T11:34:18.823Z,2.50
2023-03-16T11:37:05.428Z,2.60
2023-03-16T11:40:34.160Z,2.75
2023-03-16T11:43:22.833Z,3.17
2023-03-16T11:46:09.050Z,2.15
2023-03-16T11:48:44.870Z,2.30
2023-03-16T11:51:36.864Z,2.30
2023-03-16T11:54:33.593Z,1.95
2023-03-16T11:57:03.803Z,2.05
2023-03-16T11:59:37.636Z,2.58
2023-03-16T12:02:14.168Z,1.75
2023-03-16T12:04:50.953Z,1.92
2023-03-16T12:07:36.584Z,1.77
2023-03-16T12:10:20.285Z,2.00
2023-03-16T12:13:33.734Z,1.85
2023-03-16T12:16:15.261Z,1.42
2023-03-16T12:18:54.658Z,1.70
2023-03-16T12:21:28.211Z,1.62
2023-03-16T12:24:00.423Z,2.05
2023-03-16T12:26:32.586Z,1.75
2023-03-16T12:29:08.553Z,1.55
2023-03-16T12:31:55.919Z,2.47
2023-03-16T12:34:34.529Z,1.60
2023-03-16T12:37:15.059Z,1.73
2023-03-16T12:40:15.756Z,1.65
2023-03-16T12:42:55.354Z,1.83
2023-03-16T12:45:48.487Z,1.70
2023-03-16T12:48:25.132Z,1.67
2023-03-16T12:50:58.612Z,1.58
2023-03-16T12:53:39.271Z,1.50
2023-03-16T12:56:10.089Z,1.08
2023-03-16T12:58:46.076Z,1.30
2023-03-16T13:01:15.409Z,1.70
2023-03-16T13:03:46.778Z,1.40
2023-03-16T13:06:20.576Z,1.25
2023-03-16T13:08:54.943Z,1.20
2023-03-16T13:11:22.203Z,1.20
2023-03-16T13:14:12.954Z,1.90
2023-03-16T13:16:41.241Z,2.30
2023-03-16T13:19:29.576Z,1.27
2023-03-16T13:22:20.958Z,0.90
2023-03-16T13:24:53.051Z,1.12
2023-03-16T13:27:28.434Z,1.35
2023-03-16T13:29:59.110Z,1.02
2023-03-16T13:32:32.064Z,1.55
2023-03-16T13:35:02.277Z,1.05
2023-03-16T13:37:30.141Z,1.83
2023-03-16T13:40:00.054Z,1.35
2023-03-16T13:42:32.609Z,1.87
2023-03-16T13:45:11.388Z,1.60
2023-03-16T13:47:43.468Z,1.45
2023-03-16T13:50:13.699Z,1.80
2023-03-16T13:52:43.248Z,1.83
2023-03-16T13:55:17.441Z,1.05
2023-03-16T13:57:46.485Z,1.20
2023-03-16T14:00:18.116Z,1.20
2023-03-16T14:02:48.843Z,1.48
2023-03-16T14:05:24.463Z,1.80
2023-03-16T14:07:52.930Z,1.10
2023-03-16T14:10:21.802Z,1.15
2023-03-16T14:13:07.068Z,1.05
2023-03-16T14:15:37.366Z,1.33
2023-03-16T14:18:21.370Z,1.37
2023-03-16T14:20:56.322Z,1.55
2023-03-16T14:23:31.573Z,1.30
2023-03-16T14:25:59.382Z,1.35
2023-03-16T14:28:32.290Z,1.30
2023-03-16T14:31:13.421Z,1.30
2023-03-16T14:33:46.050Z,1.20
2023-03-16T14:36:18.709Z,1.20
2023-03-16T14:38:54.390Z,1.10
2023-03-16T14:41:23.654Z,1.42
2023-03-16T14:44:04.286Z,1.52
2023-03-16T14:46:42.430Z,2.10
2023-03-16T14:49:27.945Z,1.48
2023-03-16T14:52:00.445Z,1.42
2023-03-16T14:54:28.688Z,1.48
2023-03-16T14:57:01.841Z,1.25
2023-03-16T14:59:29.176Z,1.40
2023-03-16T15:01:58.068Z,1.45
2023-03-16T15:04:31.297Z,1.90
2023-03-16T15:06:59.055Z,1.50
2023-03-16T15:09:46.056Z,1.35
2023-03-16T15:12:19.812Z,1.20
2023-03-16T15:15:06.919Z,2.03
2023-03-16T15:17:34.366Z,1.92
2023-03-16T15:20:01.535Z,1.75
2023-03-16T15:22:35.603Z,1.60
2023-03-16T15:25:38.568Z,0.90
2023-03-16T15:28:25.747Z,1.30
2023-03-16T15:30:58.059Z,1.30
2023-03-16T15:33:26.594Z,1.58
2023-03-16T15:35:57.130Z,2.05
2023-03-16T15:38:31.390Z,1.77
2023-03-16T15:40:59.672Z,1.35
2023-03-16T15:43:29.293Z,1.70
2023-03-16T15:45:57.583Z,1.80
2023-03-16T15:48:25.471Z,3.20
2023-03-16T15:50:54.530Z,1.77
2023-03-16T15:53:38.519Z,2.35
2023-03-16T15:56:17.427Z,1.75
2023-03-16T15:58:46.604Z,1.25
2023-03-16T16:01:22.766Z,1.20
2023-03-16T16:03:54.117Z,1.48
2023-03-16T16:06:22.201Z,1.62
2023-03-16T16:08:49.837Z,1.23
2023-03-16T16:11:22.372Z,2.05
2023-03-16T16:13:50.468Z,2.20
2023-03-16T16:16:19.468Z,1.48
2023-03-16T16:18:48.367Z,1.10
2023-03-16T16:21:24.548Z,1.52
2023-03-16T16:23:52.789Z,1.33
2023-03-16T16:26:50.005Z,2.03
2023-03-16T16:29:22.601Z,1.62
2023-03-16T16:31:51.655Z,1.67
2023-03-16T16:34:23.898Z,2.50
2023-03-16T16:36:51.370Z,2.62
2023-03-16T16:39:18.487Z,2.80
2023-03-16T16:41:46.161Z,2.30
2023-03-16T16:44:21.485Z,2.25
2023-03-16T16:46:50.358Z,2.97
2023-03-16T16:49:21.032Z,2.58
2023-03-16T16:51:48.148Z,2.95
2023-03-16T16:54:18.492Z,3.17
2023-03-16T16:56:46.776Z,3.37
2023-03-16T16:59:32.410Z,2.58
2023-03-16T17:02:03.250Z,3.10
2023-03-16T17:04:30.763Z,3.08
2023-03-16T17:07:01.881Z,3.60
2023-03-16T17:09:30.702Z,4.05
2023-03-16T17:12:01.069Z,3.87
2023-03-16T17:14:28.570Z,4.07
2023-03-16T17:16:59.814Z,3.45
2023-03-16T17:19:28.131Z,3.05
2023-03-16T17:21:57.431Z,3.05
2023-03-16T17:24:25.150Z,3.00
2023-03-16T17:26:55.331Z,2.60
2023-03-16T17:29:25.758Z,5.45
2023-03-16T17:31:53.163Z,15.15
2023-03-16T17:34:25.918Z,22.08
2023-03-16T17:36:57.631Z,16.10
2023-03-16T17:39:29.958Z,9.35
2023-03-16T17:42:19.162Z,6.93
2023-03-16T17:44:48.668Z,7.07
2023-03-16T17:47:17.288Z,6.25
2023-03-16T17:49:48.524Z,6.57
2023-03-16T17:52:18.843Z,5.87
2023-03-16T17:54:50.471Z,9.15
2023-03-16T17:57:22.187Z,6.80
2023-03-16T17:59:49.240Z,7.47
2023-03-16T18:02:50.118Z,7.97
2023-03-16T18:05:20.983Z,10.50
2023-03-16T18:07:48.699Z,12.32
2023-03-16T18:10:26.258Z,13.20
2023-03-16T18:12:58.513Z,9.55
2023-03-16T18:15:29.357Z,7.90
2023-03-16T18:17:58.432Z,7.87
2023-03-16T18:20:33.695Z,14.98
2023-03-16T18:23:09.350Z,12.75
2023-03-16T18:25:42.024Z,13.57
2023-03-16T18:28:11.316Z,13.10
2023-03-16T18:30:43.631Z,13.43
2023-03-16T18:33:23.710Z,13.10
2023-03-16T18:35:52.750Z,13.48
2023-03-16T18:38:39.273Z,12.00
2023-03-16T18:41:23.447Z,10.35
2023-03-16T18:43:53.879Z,11.25
2023-03-16T18:46:33.248Z,10.55
2023-03-16T18:49:09.921Z,9.98
2023-03-16T18:51:37.278Z,9.00
2023-03-16T18:54:20.449Z,11.68
2023-03-16T18:56:48.546Z,9.40
2023-03-16T18:59:17.201Z,9.77
2023-03-16T19:01:45.581Z,8.55
2023-03-16T19:04:23.855Z,7.87
2023-03-16T19:06:54.092Z,7.62
2023-03-16T19:09:27.737Z,6.65
2023-03-16T19:11:55.439Z,7.00
2023-03-16T19:14:34.156Z,7.80
2023-03-16T19:17:01.638Z,7.70
2023-03-16T19:19:28.964Z,5.40
2023-03-16T19:22:09.756Z,4.55
2023-03-16T19:24:48.744Z,5.55
2023-03-16T19:27:21.837Z,4.40
2023-03-16T19:29:52.139Z,3.13
2023-03-16T19:32:21.515Z,2.75
2023-03-16T19:34:49.086Z,3.30
2023-03-16T19:37:19.858Z,3.50
2023-03-16T19:39:47.159Z,4.12
2023-03-16T19:42:30.071Z,4.35
2023-03-16T19:44:57.155Z,4.55
2023-03-16T19:47:31.009Z,4.90
2023-03-16T19:49:59.049Z,5.93
2023-03-16T19:52:28.310Z,5.97
2023-03-16T19:54:55.375Z,6.80
2023-03-16T19:57:22.448Z,6.07
2023-03-16T19:59:55.455Z,7.85
2023-03-16T20:02:28.539Z,6.87
2023-03-16T20:04:56.786Z,5.77
2023-03-16T20:07:24.293Z,6.32
2023-03-16T20:09:51.509Z,6.03
2023-03-16T20:12:26.081Z,5.62
2023-03-16T20:17:23.711Z,5.18
2023-03-16T20:19:51.619Z,6.25
2023-03-16T20:22:29.144Z,6.15
2023-03-16T20:24:58.047Z,6.82
2023-03-16T20:27:27.877Z,8.27
2023-03-16T20:29:55.042Z,7.62
2023-03-16T20:32:27.741Z,6.22
2023-03-16T20:34:54.863Z,7.37
2023-03-16T20:37:24.298Z,8.20
2023-03-16T20:39:54.178Z,7.80
2023-03-16T20:42:28.876Z,7.28
2023-03-16T20:44:56.541Z,8.30
2023-03-16T20:47:25.692Z,8.15
2023-03-16T20:49:55.125Z,7.35
2023-03-16T20:52:28.837Z,7.22
2023-03-16T20:54:58.056Z,6.78
2023-03-16T20:57:29.093Z,6.22
2023-03-16T20:59:56.561Z,5.50
2023-03-16T21:02:34.033Z,5.90
2023-03-16T21:05:04.134Z,5.40
2023-03-16T21:07:32.045Z,5.25
2023-03-16T21:09:59.183Z,4.78
2023-03-16T21:12:32.746Z,5.00
2023-03-16T21:15:02.543Z,4.53
2023-03-16T21:17:36.631Z,5.40
2023-03-16T21:20:15.856Z,6.00
2023-03-16T21:22:43.587Z,3.75
2023-03-16T21:25:23.676Z,4.18
2023-03-16T21:27:54.092Z,3.90
2023-03-16T21:30:32.469Z,4.15
2023-03-16T21:33:01.907Z,4.28
2023-03-16T21:35:35.414Z,3.65
2023-03-16T21:38:13.742Z,4.00
2023-03-16T21:40:41.311Z,4.10
2023-03-16T21:43:11.991Z,3.75
2023-03-16T21:45:40.078Z,4.30
2023-03-16T21:48:20.338Z,4.87
2023-03-16T21:50:49.090Z,4.10
2023-03-16T21:53:28.696Z,4.95
2023-03-16T21:55:57.133Z,3.92
2023-03-16T21:58:24.619Z,3.92
2023-03-16T22:00:53.642Z,4.65
2023-03-16T22:03:49.718Z,4.37
2023-03-16T22:06:17.942Z,3.50
2023-03-16T22:08:45.605Z,3.95
2023-03-16T22:11:18.761Z,3.45
2023-03-16T22:13:46.784Z,3.63
2023-03-16T22:16:20.602Z,4.43
2023-03-16T22:18:50.124Z,3.85
2023-03-16T22:21:40.923Z,4.07
2023-03-16T22:24:18.037Z,4.05
2023-03-16T22:26:49.085Z,4.03
2023-03-16T22:29:26.233Z,3.95
2023-03-16T22:31:57.902Z,4.60
2023-03-16T22:34:30.135Z,4.57
2023-03-16T22:36:58.201Z,4.90
2023-03-16T22:39:25.679Z,4.12
2023-03-16T22:41:52.817Z,4.75
2023-03-16T22:44:22.826Z,4.65
2023-03-16T22:46:51.053Z,4.55
2023-03-16T22:49:22.297Z,4.60
2023-03-16T22:51:51.781Z,4.22
2023-03-16T22:54:24.231Z,3.95
2023-03-16T22:56:51.602Z,5.00
2023-03-16T22:59:22.446Z,3.90
2023-03-16T23:01:50.448Z,4.35
2023-03-16T23:04:24.720Z,4.60
2023-03-16T23:06:53.752Z,4.50
2023-03-16T23:09:21.945Z,4.10
2023-03-16T23:11:54.405Z,3.53
2023-03-16T23:14:24.703Z,4.18
2023-03-16T23:16:52.684Z,4.12
2023-03-16T23:19:29.665Z,4.18
2023-03-16T23:22:01.844Z,3.62
2023-03-16T23:24:29.401Z,3.60
2023-03-16T23:26:57.225Z,3.90
2023-03-16T23:29:26.164Z,3.95
2023-03-16T23:31:54.560Z,4.22
2023-03-16T23:34:24.806Z,2.70
2023-03-16T23:36:52.592Z,3.58
2023-03-16T23:39:19.907Z,3.90
2023-03-16T23:41:49.657Z,3.25
2023-03-16T23:44:23.368Z,3.30
2023-03-16T23:46:51.530Z,3.28
2023-03-16T23:49:28.851Z,3.30
2023-03-16T23:51:59.379Z,3.40
2023-03-16T23:54:29.743Z,3.08
2023-03-16T23:56:57.631Z,3.12
2023-03-16T23:59:26.588Z,3.15
